Dobrodošli na spletni strani vremenske postaje Senovo. Vse informacije so informativnega značaja, saj vremenska postaja ni del državne mreže meteoroloških postaj. AKTUALNIH OBVESTIL NI.


Posebna pozornost v zvezi z vremenskimi dogajanji ni potrebna.    Posebna pozornost v zvezi z vremenskimi dogajanji ni potrebna.

Pogled proti Armezu več informacij Pogled proti Armezu


Bohor več informacij Bohor


Radar strel več informacij blitzortung!


Radar padavin več informacij rain snow radar


Obiščite še:

Template documentation
and downloads

And another site



Weather Underground, zgodovina - Tekstovno

Dnevni povzetek za November 5, 2017 Enote:  Angleško    Metrično   Obe
« Predhodni Dan
Naslednji Dan »
Dnevni Tedenski Mesečni Letni Po meri
  Višja: Nižja: Povprečje:
Temperatura: TemperatureC °F 5.1 °F 10.4 °F
Točka rosišča: DewpointC °F 3.0 °F 6.2 °F
Vlažnost: Humidity % 40 % 78 %
Hitrost vetra: WindSpeedKMH mph 0.0 mph 1.6 mph
Sunki vetra: WindSpeedGustKMH mph - -
Veter:- - SW
Zračni tlak: PressurehPa in 1009.0 in -
Padavine: 1.0 in    
Historical Graphs
 
 
Tabelarni podarki za November 5, 2017
Čas Temperatura Točka rosišča Zračni tlak Veter Hitrost vetra Sunki vetra Vlažnost Intenziteta padavin (urna)
TemperatureC °F DewpointC °F PressurehPa in Calm     Humidity % HourlyPrecipMM in
00:02 8.7 °F 7.8 °F 1016.8 in Calm     94 % 0.0 in
00:07 8.7 °F 7.8 °F 1016.1 in Calm     94 % 0.0 in
00:12 8.6 °F 7.7 °F 1016.1 in Calm     94 % 0.0 in
00:17 8.6 °F 7.7 °F 1016.1 in Calm     94 % 0.0 in
00:22 8.6 °F 7.7 °F 1016.1 in Calm     94 % 0.0 in
00:27 8.7 °F 7.8 °F 1016.1 in Calm     94 % 0.0 in
00:32 8.7 °F 7.8 °F 1016.1 in Calm     94 % 0.0 in
00:37 8.7 °F 7.8 °F 1016.1 in Calm     94 % 0.0 in
00:42 8.7 °F 7.8 °F 1016.1 in Calm     94 % 0.0 in
00:47 8.7 °F 7.8 °F 1016.1 in Calm     94 % 0.0 in
00:52 8.7 °F 7.8 °F 1016.1 in Calm     94 % 0.0 in
00:57 8.7 °F 7.8 °F 1016.1 in Calm     94 % 0.0 in
01:02 8.7 °F 7.8 °F 1016.1 in Calm     94 % 0.0 in
01:07 8.7 °F 7.8 °F 1016.1 in Calm     94 % 0.0 in
01:12 8.7 °F 7.8 °F 1016.1 in Calm     94 % 0.0 in
01:17 8.8 °F 7.9 °F 1016.1 in Calm     94 % 0.0 in
01:22 8.8 °F 7.9 °F 1015.1 in Calm     94 % 0.0 in
01:27 8.8 °F 7.9 °F 1015.1 in Calm     94 % 0.0 in
01:32 8.8 °F 7.9 °F 1015.1 in Calm     94 % 0.0 in
01:37 8.8 °F 7.9 °F 1015.1 in Calm     94 % 0.0 in
01:42 8.8 °F 7.9 °F 1015.1 in Calm     94 % 0.0 in
01:47 8.8 °F 7.9 °F 1015.1 in Calm     94 % 0.0 in
01:52 8.8 °F 7.9 °F 1015.1 in Calm     94 % 0.0 in
01:57 8.8 °F 7.9 °F 1015.1 in Calm     94 % 0.0 in
02:02 8.8 °F 7.9 °F 1015.1 in Calm     94 % 0.0 in
02:07 8.8 °F 7.9 °F 1016.1 in Calm     94 % 0.0 in
02:12 8.8 °F 7.9 °F 1016.1 in Calm     94 % 0.0 in
02:17 8.8 °F 7.9 °F 1016.1 in Calm     94 % 0.0 in
02:23 8.8 °F 7.9 °F 1016.1 in Calm     94 % 0.0 in
02:28 8.8 °F 7.9 °F 1016.1 in Calm     94 % 0.0 in
02:33 8.8 °F 7.9 °F 1016.1 in Calm     94 % 0.0 in
02:38 8.8 °F 7.9 °F 1016.1 in Calm     94 % 0.0 in
02:43 8.8 °F 7.9 °F 1016.1 in Calm     94 % 0.0 in
02:48 8.8 °F 7.9 °F 1016.1 in Calm     94 % 0.0 in
02:53 8.8 °F 7.9 °F 1016.1 in Calm     94 % 0.0 in
02:58 8.8 °F 7.9 °F 1016.1 in Calm     94 % 0.0 in
03:03 8.8 °F 7.9 °F 1016.1 in Calm     94 % 0.0 in
03:08 8.7 °F 7.8 °F 1016.1 in Calm     94 % 0.0 in
03:13 8.6 °F 7.7 °F 1016.1 in Calm     94 % 0.0 in
03:18 8.6 °F 7.7 °F 1016.1 in Calm     94 % 0.0 in
03:23 8.5 °F 7.6 °F 1016.1 in Calm   2.1 mph 94 % 0.0 in
03:28 8.5 °F 7.6 °F 1016.1 in Calm   2.1 mph 94 % 0.0 in
03:33 8.4 °F 7.5 °F 1016.1 in Calm   2.1 mph 94 % 0.0 in
03:38 8.4 °F 7.5 °F 1015.1 in Calm     94 % 0.0 in
03:43 8.3 °F 7.2 °F 1015.1 in Calm     93 % 0.0 in
03:48 8.2 °F 7.1 °F 1015.1 in Calm     93 % 0.0 in
03:53 8.0 °F 6.9 °F 1015.1 in Calm     93 % 0.0 in
03:58 7.9 °F 7.0 °F 1015.1 in Calm     94 % 0.0 in
04:03 7.8 °F 6.9 °F 1015.1 in Calm     94 % 0.0 in
04:08 7.7 °F 6.8 °F 1015.1 in Calm     94 % 0.0 in
04:13 7.5 °F 6.4 °F 1015.1 in Calm     93 % 0.0 in
04:19 7.4 °F 6.3 °F 1015.1 in Calm     93 % 0.0 in
04:20 7.4 °F 6.3 °F 1015.1 in Calm     93 % 0.0 in
04:21 7.4 °F 6.3 °F 1015.1 in Calm     93 % 0.0 in
04:23 7.3 °F 6.2 °F 1015.1 in Calm     93 % 0.0 in
04:26 7.2 °F 6.2 °F 1015.1 in Calm     93 % 0.0 in
04:31 7.1 °F 6.1 °F 1015.1 in Calm     93 % 0.0 in
04:32 7.1 °F 6.1 °F 1015.1 in Calm     93 % 0.0 in
04:37 6.9 °F 6.0 °F 1015.1 in Calm     94 % 0.0 in
04:42 6.8 °F 5.9 °F 1015.1 in Calm     94 % 0.0 in
04:47 6.7 °F 5.8 °F 1015.1 in Calm     94 % 0.0 in
04:52 6.6 °F 5.7 °F 1015.1 in WSW 0.3 mph 4.0 mph 94 % 0.0 in
04:57 6.4 °F 5.5 °F 1015.1 in WSW 0.3 mph 4.0 mph 94 % 0.0 in
05:02 6.3 °F 5.4 °F 1015.1 in WNW 0.6 mph 4.7 mph 94 % 0.0 in
05:07 6.3 °F 5.4 °F 1015.1 in WNW 1.8 mph 5.5 mph 94 % 0.0 in
05:12 6.3 °F 5.4 °F 1015.1 in NE 2.1 mph 5.5 mph 94 % 0.0 in
05:17 6.3 °F 5.4 °F 1015.1 in SSW 1.4 mph 4.3 mph 94 % 0.0 in
05:22 6.2 °F 5.3 °F 1014.1 in SE 1.4 mph 4.3 mph 94 % 0.0 in
05:27 6.1 °F 5.2 °F 1014.1 in ENE 1.0 mph 3.2 mph 94 % 0.0 in
05:32 6.1 °F 5.2 °F 1014.1 in Calm     94 % 0.0 in
05:37 6.1 °F 5.2 °F 1014.1 in Calm     94 % 0.0 in
05:42 6.0 °F 5.1 °F 1014.1 in Calm     94 % 0.0 in
05:47 6.0 °F 5.1 °F 1014.1 in Calm     94 % 0.0 in
05:52 5.9 °F 5.2 °F 1014.1 in Calm     95 % 0.0 in
05:57 5.8 °F 5.1 °F 1014.1 in Calm     95 % 0.0 in
06:02 5.8 °F 5.1 °F 1014.1 in Calm   2.6 mph 95 % 0.0 in
06:07 5.7 °F 4.9 °F 1014.1 in NW 0.5 mph 4.0 mph 95 % 0.0 in
06:12 5.7 °F 4.9 °F 1014.1 in NW 0.5 mph 4.0 mph 95 % 0.0 in
06:17 5.6 °F 4.9 °F 1014.1 in Calm     95 % 0.0 in
06:22 5.6 °F 4.9 °F 1014.1 in Calm     95 % 0.0 in
06:27 5.6 °F 4.9 °F 1014.1 in West 0.2 mph 4.0 mph 95 % 0.0 in
06:32 5.5 °F 4.8 °F 1014.1 in West 0.2 mph 4.0 mph 95 % 0.0 in
06:37 5.4 °F 4.7 °F 1014.1 in Calm     95 % 0.0 in
06:42 5.4 °F 4.7 °F 1014.1 in Calm     95 % 0.0 in
06:47 5.3 °F 4.6 °F 1014.1 in SW 0.2 mph 2.1 mph 95 % 0.0 in
06:52 5.2 °F 4.4 °F 1014.1 in SW 0.2 mph 2.1 mph 95 % 0.0 in
06:57 5.2 °F 4.4 °F 1014.1 in North 0.2 mph 3.2 mph 95 % 0.0 in
07:02 5.1 °F 4.4 °F 1014.1 in NNE 0.2 mph 3.2 mph 95 % 0.0 in
07:08 5.1 °F 4.4 °F 1014.1 in Calm     95 % 0.0 in
07:13 5.1 °F 4.4 °F 1014.1 in SW 0.5 mph 3.2 mph 95 % 0.0 in
07:18 5.1 °F 4.4 °F 1014.1 in SW 1.3 mph 5.0 mph 95 % 0.0 in
07:23 5.2 °F 4.4 °F 1015.1 in West 0.8 mph 5.0 mph 95 % 0.0 in
07:28 5.3 °F 4.7 °F 1015.1 in Calm     96 % 0.0 in
07:33 5.3 °F 4.7 °F 1015.1 in Calm     96 % 0.0 in
07:38 5.4 °F 4.8 °F 1015.1 in Calm     96 % 0.0 in
07:43 5.4 °F 4.8 °F 1015.1 in Calm     96 % 0.0 in
07:48 5.5 °F 4.9 °F 1015.1 in Calm     96 % 0.0 in
07:53 5.5 °F 4.9 °F 1014.1 in Calm   1.4 mph 96 % 0.0 in
07:58 5.5 °F 4.9 °F 1014.1 in SE 0.2 mph 4.7 mph 96 % 0.0 in
08:03 5.5 °F 4.9 °F 1014.1 in SE 0.5 mph 4.7 mph 96 % 0.0 in
08:08 5.6 °F 5.0 °F 1014.1 in South 0.5 mph 4.3 mph 96 % 0.0 in
08:13 5.6 °F 5.0 °F 1014.1 in SSW 0.6 mph 3.5 mph 96 % 0.0 in
08:18 5.7 °F 5.1 °F 1014.1 in SSW 0.5 mph 3.5 mph 96 % 0.0 in
08:23 5.7 °F 5.1 °F 1014.1 in Calm     96 % 0.0 in
08:28 5.8 °F 5.2 °F 1014.1 in Calm     96 % 0.0 in
08:33 6.0 °F 5.4 °F 1014.1 in Calm     96 % 0.0 in
08:38 6.1 °F 5.5 °F 1014.1 in Calm     96 % 0.0 in
08:43 6.3 °F 5.7 °F 1014.1 in SSE 0.5 mph 4.3 mph 96 % 0.0 in
08:48 6.5 °F 5.9 °F 1014.1 in SSE 0.5 mph 4.3 mph 96 % 0.0 in
08:53 6.7 °F 6.3 °F 1013.1 in SE 0.3 mph 2.6 mph 97 % 0.0 in
08:58 6.9 °F 6.4 °F 1013.1 in SE 0.3 mph 2.6 mph 97 % 0.0 in
09:03 7.1 °F 6.5 °F 1013.1 in Calm   2.1 mph 96 % 0.0 in
09:08 7.4 °F 6.9 °F 1014.1 in SSE 0.2 mph 2.1 mph 97 % 0.0 in
09:13 7.7 °F 7.3 °F 1014.1 in SSE 0.5 mph 4.0 mph 97 % 0.0 in
09:18 7.9 °F 7.4 °F 1014.1 in SSE 0.6 mph 4.0 mph 97 % 0.0 in
09:23 8.2 °F 7.8 °F 1014.1 in South 0.5 mph 3.2 mph 97 % 0.0 in
09:28 8.5 °F 8.1 °F 1014.1 in SSW 0.8 mph 3.2 mph 97 % 0.0 in
09:33 8.9 °F 8.4 °F 1014.1 in SE 1.8 mph 5.5 mph 97 % 0.0 in
09:38 9.3 °F 8.8 °F 1014.1 in ESE 3.1 mph 5.5 mph 97 % 0.0 in
09:43 9.7 °F 9.2 °F 1014.1 in ESE 3.1 mph 5.5 mph 97 % 0.0 in
09:48 10.1 °F 9.7 °F 1014.1 in East 1.6 mph 3.5 mph 97 % 0.0 in
09:53 10.4 °F 9.9 °F 1014.1 in ENE 0.5 mph 2.6 mph 97 % 0.0 in
09:58 10.6 °F 10.2 °F 1014.1 in South 1.0 mph 5.8 mph 97 % 0.0 in
10:03 11.4 °F 10.9 °F 1014.1 in South 3.7 mph 10.1 mph 97 % 0.0 in
10:08 11.9 °F 11.4 °F 1014.1 in South 4.2 mph 10.1 mph 97 % 0.0 in
10:13 12.5 °F 11.9 °F 1014.1 in South 3.4 mph 6.9 mph 96 % 0.0 in
10:18 13.1 °F 12.5 °F 1014.1 in SW 3.9 mph 8.7 mph 96 % 0.0 in
10:23 13.5 °F 12.9 °F 1014.1 in SW 4.5 mph 8.7 mph 96 % 0.0 in
10:28 13.7 °F 13.1 °F 1014.1 in SW 5.5 mph 10.8 mph 96 % 0.0 in
10:33 14.2 °F 13.2 °F 1014.1 in WSW 7.2 mph 17.7 mph 94 % 0.0 in
10:38 14.5 °F 13.4 °F 1014.1 in WSW 7.9 mph 17.7 mph 93 % 0.0 in
10:43 14.8 °F 13.5 °F 1014.1 in WSW 6.4 mph 17.2 mph 92 % 0.0 in
10:48 15.2 °F 13.6 °F 1014.1 in WSW 6.4 mph 12.2 mph 90 % 0.0 in
10:53 15.6 °F 13.6 °F 1014.1 in SW 8.0 mph 16.9 mph 88 % 0.0 in
10:58 15.9 °F 13.4 °F 1014.1 in WSW 8.0 mph 16.9 mph 85 % 0.0 in
11:03 16.1 °F 13.0 °F 1014.1 in WSW 6.3 mph 14.0 mph 82 % 0.0 in
11:08 16.3 °F 12.8 °F 1013.1 in SW 6.0 mph 14.0 mph 80 % 0.0 in
11:13 16.7 °F 12.4 °F 1013.1 in SSW 6.1 mph 13.0 mph 76 % 0.0 in
11:18 16.9 °F 12.0 °F 1013.1 in SSW 6.4 mph 13.0 mph 73 % 0.0 in
11:23 17.1 °F 11.8 °F 1013.1 in SW 6.1 mph 11.6 mph 71 % 0.0 in
11:28 17.2 °F 11.4 °F 1013.1 in SW 6.1 mph 17.7 mph 69 % 0.0 in
11:33 17.3 °F 10.9 °F 1013.1 in SW 8.8 mph 17.7 mph 66 % 0.0 in
11:38 17.6 °F 10.4 °F 1013.1 in SW 9.3 mph 16.6 mph 63 % 0.0 in
11:43 17.7 °F 9.8 °F 1013.1 in SW 9.2 mph 21.2 mph 60 % 0.0 in
11:48 17.9 °F 9.8 °F 1013.1 in SW 8.2 mph 21.2 mph 59 % 0.0 in
11:54 17.9 °F 9.5 °F 1012.1 in SSW 7.9 mph 17.7 mph 58 % 0.0 in
11:59 18.0 °F 9.1 °F 1012.1 in SW 9.3 mph 17.7 mph 56 % 0.0 in
12:04 18.2 °F 9.0 °F 1012.1 in SW 7.6 mph 13.0 mph 55 % 0.0 in
12:09 18.3 °F 8.6 °F 1011.1 in SW 5.6 mph 12.2 mph 53 % 0.0 in
12:14 18.3 °F 8.0 °F 1011.1 in SSW 5.8 mph 12.6 mph 51 % 0.0 in
12:19 18.4 °F 7.8 °F 1011.1 in South 5.1 mph 12.6 mph 50 % 0.0 in
12:24 18.4 °F 7.8 °F 1011.1 in SSE 4.8 mph 9.7 mph 50 % 0.0 in
12:29 18.4 °F 7.8 °F 1011.1 in South 3.7 mph 9.3 mph 50 % 0.0 in
12:34 18.4 °F 7.2 °F 1011.1 in SW 5.8 mph 16.3 mph 48 % 0.0 in
12:39 18.4 °F 6.6 °F 1013.1 in SW 9.8 mph 16.3 mph 46 % 0.0 in
12:44 18.4 °F 6.6 °F 1013.1 in SW 8.2 mph 16.3 mph 46 % 0.0 in
12:49 18.5 °F 6.7 °F 1013.1 in SW 4.8 mph 10.1 mph 46 % 0.0 in
12:54 18.5 °F 6.7 °F 1012.1 in SW 5.3 mph 10.1 mph 46 % 0.0 in
12:59 18.4 °F 6.2 °F 1012.1 in SW 5.1 mph 10.1 mph 45 % 0.0 in
13:04 18.4 °F 6.2 °F 1012.1 in SW 4.5 mph 14.0 mph 45 % 0.0 in
13:06 18.4 °F 6.2 °F 1012.1 in SW 4.5 mph 14.0 mph 45 % 0.0 in
13:11 18.3 °F 5.8 °F 1012.1 in WSW 6.1 mph 13.0 mph 44 % 0.0 in
13:16 18.2 °F 5.4 °F 1012.1 in SW 5.6 mph 13.0 mph 43 % 0.0 in
13:21 18.2 °F 5.4 °F 1011.1 in SW 6.1 mph 16.9 mph 43 % 0.0 in
13:26 18.2 °F 5.4 °F 1011.1 in SW 6.3 mph 16.9 mph 43 % 0.0 in
13:31 18.2 °F 5.4 °F 1011.1 in SSW 3.2 mph 9.0 mph 43 % 0.0 in
13:36 18.1 °F 5.3 °F 1011.1 in South 3.1 mph 9.0 mph 43 % 0.0 in
13:41 17.9 °F 5.1 °F 1011.1 in SW 4.7 mph 11.6 mph 43 % 0.0 in
13:46 17.7 °F 4.6 °F 1011.1 in WSW 5.5 mph 11.6 mph 42 % 0.0 in
13:51 17.4 °F 4.3 °F 1011.1 in WSW 4.3 mph 11.6 mph 42 % 0.0 in
13:56 17.3 °F 4.3 °F 1011.1 in WSW 3.5 mph 6.4 mph 42 % 0.0 in
14:01 17.3 °F 4.6 °F 1011.1 in WSW 3.5 mph 6.1 mph 43 % 0.0 in
14:07 17.3 °F 4.6 °F 1011.1 in SW 2.6 mph 5.5 mph 43 % 0.0 in
14:12 17.3 °F 4.9 °F 1011.1 in WSW 2.3 mph 5.8 mph 44 % 0.0 in
14:17 17.3 °F 4.6 °F 1011.1 in WSW 4.0 mph 11.9 mph 43 % 0.0 in
14:22 17.2 °F 4.5 °F 1010.0 in SW 5.3 mph 11.9 mph 43 % 0.0 in
14:27 17.2 °F 4.5 °F 1010.0 in SW 4.3 mph 9.0 mph 43 % 0.0 in
14:32 17.3 °F 4.6 °F 1010.0 in SSW 3.2 mph 6.9 mph 43 % 0.0 in
14:37 17.4 °F 4.7 °F 1010.0 in SW 2.9 mph 9.0 mph 43 % 0.0 in
14:42 17.4 °F 4.3 °F 1010.0 in WSW 4.2 mph 10.5 mph 42 % 0.0 in
14:47 17.3 °F 3.9 °F 1010.0 in SW 5.6 mph 10.5 mph 41 % 0.0 in
14:52 17.2 °F 3.8 °F 1009.0 in SW 4.7 mph 9.7 mph 41 % 0.0 in
14:57 17.0 °F 3.7 °F 1009.0 in SW 4.3 mph 9.7 mph 41 % 0.0 in
15:02 16.8 °F 3.1 °F 1009.0 in WSW 6.0 mph 14.0 mph 40 % 0.0 in
15:07 16.8 °F 3.1 °F 1009.0 in WSW 6.1 mph 14.0 mph 40 % 0.0 in
15:12 16.7 °F 3.0 °F 1009.0 in WSW 4.0 mph 10.1 mph 40 % 0.0 in
15:14 16.6 °F 3.3 °F 1009.0 in WSW 3.4 mph 6.9 mph 41 % 0.0 in
15:19 16.3 °F 3.3 °F 1009.0 in WSW 2.7 mph 6.4 mph 42 % 0.0 in
15:24 16.0 °F 3.4 °F 1010.0 in WSW 2.6 mph 5.5 mph 43 % 0.0 in
15:29 15.9 °F 3.7 °F 1010.0 in SW 2.9 mph 10.1 mph 44 % 0.0 in
15:34 15.9 °F 3.7 °F 1010.0 in SW 4.5 mph 10.1 mph 44 % 0.0 in
15:39 15.8 °F 3.6 °F 1010.0 in SW 4.3 mph 7.9 mph 44 % 0.0 in
15:44 15.5 °F 3.3 °F 1010.0 in WSW 2.9 mph 6.1 mph 44 % 0.0 in
15:49 15.3 °F 3.4 °F 1010.0 in West 1.9 mph 4.0 mph 45 % 0.0 in
15:54 15.0 °F 3.4 °F 1010.0 in West 1.4 mph 4.0 mph 46 % 0.0 in
15:59 14.5 °F 3.3 °F 1010.0 in SW 1.1 mph 3.5 mph 47 % 0.0 in
16:04 14.1 °F 3.2 °F 1010.0 in SW 0.5 mph 2.6 mph 48 % 0.0 in
16:09 13.7 °F 3.2 °F 1010.0 in Calm   3.2 mph 49 % 0.0 in
16:14 13.3 °F 3.1 °F 1010.0 in NW 1.0 mph 5.0 mph 50 % 0.0 in
16:19 12.9 °F 3.3 °F 1010.0 in NW 1.0 mph 5.0 mph 52 % 0.0 in
16:24 12.5 °F 3.4 °F 1011.1 in North 0.2 mph   54 % 0.0 in
16:29 12.2 °F 3.2 °F 1011.1 in Calm   1.8 mph 54 % 0.0 in
16:34 11.9 °F 3.4 °F 1011.1 in NW 1.1 mph 5.5 mph 56 % 0.0 in
16:39 11.6 °F 3.4 °F 1010.0 in NW 1.9 mph 5.5 mph 57 % 0.0 in
16:44 11.4 °F 3.4 °F 1010.0 in NW 1.3 mph 4.0 mph 58 % 0.0 in
16:49 11.1 °F 3.4 °F 1010.0 in Calm     59 % 0.0 in
16:54 10.8 °F 3.3 °F 1009.0 in Calm     60 % 0.0 in
16:56 10.8 °F 3.3 °F 1009.0 in Calm     60 % 0.0 in
17:01 10.6 °F 3.4 °F 1009.0 in SSW 0.5 mph 2.1 mph 61 % 0.0 in
17:06 10.3 °F 3.3 °F 1010.0 in SSW 1.0 mph 2.1 mph 62 % 0.0 in
17:11 10.1 °F 3.4 °F 1010.0 in SW 1.1 mph 2.1 mph 63 % 0.0 in
17:16 10.0 °F 3.5 °F 1010.0 in SW 1.4 mph 1.4 mph 64 % 0.0 in
17:21 9.8 °F 3.5 °F 1010.0 in SW 1.3 mph 4.0 mph 65 % 0.0 in
17:26 9.6 °F 3.3 °F 1010.0 in SW 1.0 mph 4.0 mph 65 % 0.0 in
17:31 9.4 °F 3.4 °F 1010.0 in WNW 0.8 mph 4.0 mph 66 % 0.0 in
17:36 9.3 °F 3.5 °F 1010.0 in NNW 0.5 mph 3.2 mph 67 % 0.0 in
17:41 9.3 °F 3.7 °F 1010.0 in WNW 0.2 mph 2.6 mph 68 % 0.0 in
17:46 9.2 °F 3.6 °F 1010.0 in WNW 0.2 mph 2.6 mph 68 % 0.0 in
17:51 9.2 °F 3.8 °F 1010.0 in WNW 0.3 mph 3.2 mph 69 % 0.0 in
17:56 9.2 °F 4.0 °F 1010.0 in WNW 0.3 mph 3.2 mph 70 % 0.0 in
18:01 9.2 °F 4.0 °F 1010.0 in Calm     70 % 0.0 in
18:06 9.3 °F 4.3 °F 1010.0 in West 1.0 mph 6.1 mph 71 % 0.0 in
18:11 9.3 °F 4.5 °F 1010.0 in West 2.4 mph 6.1 mph 72 % 0.0 in
18:16 9.3 °F 4.5 °F 1010.0 in WNW 1.9 mph 5.5 mph 72 % 0.0 in
18:21 9.3 °F 4.7 °F 1010.0 in NW 1.0 mph 4.3 mph 73 % 0.0 in
18:26 9.2 °F 4.6 °F 1010.0 in WNW 1.3 mph 4.7 mph 73 % 0.0 in
18:31 9.1 °F 4.5 °F 1010.0 in WNW 1.0 mph 4.7 mph 73 % 0.0 in
18:36 9.0 °F 4.6 °F 1009.0 in NNW 0.6 mph 3.5 mph 74 % 0.0 in
18:41 9.0 °F 4.6 °F 1009.0 in NNW 0.5 mph 3.5 mph 74 % 0.0 in
18:46 8.9 °F 4.5 °F 1009.0 in Calm   3.2 mph 74 % 0.0 in
18:50 8.9 °F 4.7 °F 1010.0 in NW 1.1 mph 4.0 mph 75 % 0.0 in
18:55 8.9 °F 4.7 °F 1010.0 in NW 2.1 mph 5.8 mph 75 % 0.0 in
19:00 8.9 °F 4.7 °F 1010.0 in NNW 1.3 mph 5.8 mph 75 % 0.0 in
19:05 8.9 °F 4.9 °F 1010.0 in NNE 0.3 mph 3.2 mph 76 % 0.0 in
19:10 8.8 °F 4.8 °F 1010.0 in Calm   2.1 mph 76 % 0.0 in
19:15 8.8 °F 4.8 °F 1010.0 in NE 0.8 mph 4.0 mph 76 % 0.0 in
19:20 8.8 °F 4.8 °F 1010.0 in ENE 1.9 mph 5.8 mph 76 % 0.0 in
19:25 8.9 °F 4.9 °F 1010.0 in WNW 2.3 mph 5.8 mph 76 % 0.0 in
19:30 8.9 °F 4.9 °F 1010.0 in WNW 1.8 mph 4.7 mph 76 % 0.0 in
19:35 8.8 °F 5.0 °F 1010.0 in WNW 0.5 mph 3.5 mph 77 % 0.0 in
19:40 8.8 °F 5.0 °F 1010.0 in NNE 0.2 mph 4.0 mph 77 % 0.0 in
19:45 8.8 °F 5.0 °F 1010.0 in North 0.3 mph 4.0 mph 77 % 0.0 in
19:50 8.8 °F 5.0 °F 1010.0 in NNW 0.6 mph 4.3 mph 77 % 0.0 in
19:55 8.8 °F 5.0 °F 1010.0 in NNW 1.0 mph 4.7 mph 77 % 0.0 in
20:00 8.8 °F 5.2 °F 1010.0 in NNW 1.4 mph 4.7 mph 78 % 0.0 in
20:05 8.8 °F 5.2 °F 1010.0 in North 1.8 mph 4.7 mph 78 % 0.0 in
20:07 8.8 °F 5.2 °F 1010.0 in North 1.6 mph 4.7 mph 78 % 0.0 in
20:12 8.8 °F 5.2 °F 1010.0 in NE 0.8 mph 2.6 mph 78 % 0.0 in
20:17 8.8 °F 5.2 °F 1010.0 in Calm     78 % 0.0 in
20:22 8.7 °F 5.1 °F 1010.0 in Calm     78 % 0.0 in
20:27 8.7 °F 5.3 °F 1010.0 in Calm     79 % 0.0 in
20:32 8.7 °F 5.3 °F 1010.0 in NNW 0.2 mph 2.6 mph 79 % 0.0 in
20:37 8.7 °F 5.3 °F 1010.0 in NNW 0.2 mph 2.6 mph 79 % 0.0 in
20:42 8.7 °F 5.3 °F 1010.0 in Calm     79 % 0.0 in
20:47 8.7 °F 5.4 °F 1010.0 in Calm   1.8 mph 80 % 0.0 in
20:52 8.7 °F 5.4 °F 1010.0 in NNW 0.3 mph 3.5 mph 80 % 0.0 in
20:57 8.7 °F 5.4 °F 1010.0 in North 0.5 mph 3.5 mph 80 % 0.0 in
21:02 8.7 °F 5.4 °F 1010.0 in NNE 0.2 mph 1.4 mph 80 % 0.0 in
21:12 8.8 °F 5.7 °F 1010.0 in Calm     81 % 0.0 in
21:17 8.8 °F 5.7 °F 1010.0 in Calm     81 % 0.0 in
21:22 8.8 °F 5.7 °F 1010.0 in NNE 0.3 mph 2.6 mph 81 % 0.0 in
21:27 8.8 °F 5.9 °F 1010.0 in NNE 0.3 mph 2.6 mph 82 % 0.0 in
21:32 8.8 °F 5.9 °F 1010.0 in NNE 0.2 mph 1.4 mph 82 % 0.0 in
21:37 8.8 °F 5.9 °F 1010.0 in Calm     82 % 0.0 in
21:42 8.8 °F 5.9 °F 1010.0 in Calm     82 % 0.0 in
21:47 8.8 °F 5.9 °F 1010.0 in Calm     82 % 0.0 in
21:52 8.9 °F 6.2 °F 1010.0 in Calm     83 % 0.0 in
21:57 8.9 °F 6.2 °F 1010.0 in Calm   2.6 mph 83 % 0.0 in
22:02 8.9 °F 6.2 °F 1010.0 in NW 0.8 mph 4.3 mph 83 % 0.0 in
22:07 8.9 °F 6.2 °F 1010.0 in NW 1.3 mph 4.3 mph 83 % 0.0 in
22:12 8.9 °F 6.2 °F 1010.0 in NNE 0.5 mph 2.6 mph 83 % 0.0 in
22:17 8.9 °F 6.2 °F 1010.0 in Calm     83 % 0.0 in
22:22 8.9 °F 6.2 °F 1010.0 in SW 1.0 mph 3.5 mph 83 % 0.0 in
22:27 8.9 °F 6.3 °F 1010.0 in SW 1.3 mph 3.5 mph 84 % 0.0 in
22:32 8.9 °F 6.3 °F 1010.0 in NW 0.5 mph 3.2 mph 84 % 0.0 in
22:37 8.9 °F 6.3 °F 1009.0 in West 0.5 mph 3.2 mph 84 % 0.0 in
22:42 8.9 °F 6.3 °F 1009.0 in NW 0.6 mph 4.0 mph 84 % 0.0 in
22:47 9.0 °F 6.4 °F 1009.0 in NW 1.3 mph 4.7 mph 84 % 0.0 in
22:52 9.0 °F 6.4 °F 1009.0 in WNW 1.4 mph 4.7 mph 84 % 0.0 in
22:58 9.0 °F 6.4 °F 1009.0 in WSW 0.2 mph 2.6 mph 84 % 0.0 in
23:02 9.1 °F 6.6 °F 1009.0 in West 0.8 mph 4.0 mph 84 % 0.0 in
23:07 9.1 °F 6.6 °F 1009.0 in West 1.8 mph 5.5 mph 84 % 0.0 in
23:13 9.2 °F 6.6 °F 1009.0 in WSW 1.9 mph 5.5 mph 84 % 0.0 in
23:18 9.2 °F 6.6 °F 1009.0 in WSW 1.0 mph 3.2 mph 84 % 0.0 in
23:23 9.2 °F 6.8 °F 1009.0 in Calm     85 % 0.0 in
23:28 9.2 °F 6.8 °F 1009.0 in Calm     85 % 0.0 in
23:33 9.2 °F 6.8 °F 1009.0 in Calm     85 % 0.3 in
23:38 9.2 °F 6.8 °F 1009.0 in Calm     85 % 0.8 in
23:43 9.2 °F 6.8 °F 1009.0 in Calm     85 % 0.8 in
23:48 9.2 °F 7.0 °F 1009.0 in Calm   3.5 mph 86 % 0.8 in
23:53 9.1 °F 6.9 °F 1009.0 in WSW 0.6 mph 3.5 mph 86 % 1.0 in
23:58 9.2 °F 7.0 °F 1009.0 in WSW 0.8 mph 3.5 mph 86 % 1.0 in
Vremenska postaja Senovo
Podatki zbrani iz Weather Underground - 3 mb

Script developed by  Jim McMurry - jmcmurry@mwt.net Adapted for the template by  Wim van der Kuil - Leuven-Template.eu

Vremenski podatki so objavljeni na:

European Weather Network

WeatherCloud

Weather Underground

AWEKAS

HAMweather, WeatherForYou, PWS Weather

MapView

Geostik

Slovenia weather network

Oprema, ki se uporablja:

Vremenski program
Cumulus

Vremenski server
Asus

Cumulus

Asus